createdAt,value
2023-03-23T00:00:19.609Z,996.77
2023-03-23T00:01:19.584Z,996.74
2023-03-23T00:02:19.573Z,996.69
2023-03-23T00:03:19.572Z,996.68
2023-03-23T00:04:19.561Z,996.65
2023-03-23T00:05:19.567Z,996.66
2023-03-23T00:06:19.532Z,996.54
2023-03-23T00:07:19.518Z,996.68
2023-03-23T00:08:19.515Z,996.65
2023-03-23T00:09:19.496Z,996.60
2023-03-23T00:10:19.490Z,996.60
2023-03-23T00:11:19.477Z,996.53
2023-03-23T00:12:19.470Z,996.53
2023-03-23T00:13:20.458Z,996.55
2023-03-23T00:14:19.441Z,996.51
2023-03-23T00:15:19.429Z,996.62
2023-03-23T00:16:19.428Z,996.56
2023-03-23T00:17:19.407Z,996.61
2023-03-23T00:18:19.414Z,996.58
2023-03-23T00:19:19.388Z,996.53
2023-03-23T00:20:19.373Z,996.45
2023-03-23T00:21:19.380Z,996.50
2023-03-23T00:22:19.354Z,996.50
2023-03-23T00:23:19.336Z,996.54
2023-03-23T00:24:19.342Z,996.49
2023-03-23T00:25:19.343Z,996.61
2023-03-23T00:26:19.310Z,996.59
2023-03-23T00:27:19.290Z,996.45
2023-03-23T00:28:19.307Z,996.50
2023-03-23T00:29:19.277Z,996.42
2023-03-23T00:30:19.261Z,996.48
2023-03-23T00:31:19.247Z,996.47
2023-03-23T00:32:19.249Z,996.49
2023-03-23T00:33:19.251Z,996.44
2023-03-23T00:34:19.222Z,996.50
2023-03-23T00:35:19.228Z,996.39
2023-03-23T00:36:19.191Z,996.35
2023-03-23T00:37:19.204Z,996.44
2023-03-23T00:38:19.183Z,996.39
2023-03-23T00:39:19.171Z,996.32
2023-03-23T00:40:19.175Z,996.38
2023-03-23T00:41:19.135Z,996.40
2023-03-23T00:42:19.128Z,996.36
2023-03-23T00:43:19.128Z,996.35
2023-03-23T00:44:22.007Z,996.44
2023-03-23T00:45:19.097Z,996.50
2023-03-23T00:46:19.100Z,996.42
2023-03-23T00:47:19.069Z,996.37
2023-03-23T00:48:19.060Z,996.43
2023-03-23T00:49:19.056Z,996.33
2023-03-23T00:50:22.247Z,996.38
2023-03-23T00:51:20.029Z,996.39
2023-03-23T00:52:19.019Z,996.23
2023-03-23T00:53:19.027Z,996.26
2023-03-23T00:54:19.015Z,996.32
2023-03-23T00:55:18.982Z,996.25
2023-03-23T00:56:18.978Z,996.28
2023-03-23T00:57:18.957Z,996.29
2023-03-23T00:58:18.953Z,996.33
2023-03-23T00:59:18.938Z,996.36
2023-03-23T01:00:18.935Z,996.42
2023-03-23T01:01:18.921Z,996.45
2023-03-23T01:02:18.905Z,996.50
2023-03-23T01:03:18.889Z,996.39
2023-03-23T01:04:18.889Z,996.30
2023-03-23T01:05:18.867Z,996.35
2023-03-23T01:06:18.862Z,996.37
2023-03-23T01:07:18.861Z,996.29
2023-03-23T01:08:18.840Z,996.26
2023-03-23T01:09:18.850Z,996.21
2023-03-23T01:10:18.813Z,996.31
2023-03-23T01:11:18.796Z,996.32
2023-03-23T01:12:18.786Z,996.27
2023-03-23T01:13:18.796Z,996.33
2023-03-23T01:14:18.796Z,996.33
2023-03-23T01:15:18.759Z,996.21
2023-03-23T01:16:18.742Z,996.27
2023-03-23T01:17:18.743Z,996.37
2023-03-23T01:18:18.720Z,996.30
2023-03-23T01:19:19.725Z,996.36
2023-03-23T01:20:18.696Z,996.29
2023-03-23T01:21:18.684Z,996.29
2023-03-23T01:22:18.679Z,996.25
2023-03-23T01:23:18.666Z,996.18
2023-03-23T01:24:18.658Z,996.14
2023-03-23T01:25:18.666Z,996.21
2023-03-23T01:26:18.630Z,996.24
2023-03-23T01:27:18.633Z,996.17
2023-03-23T01:28:18.607Z,996.22
2023-03-23T01:29:18.598Z,996.19
2023-03-23T01:30:18.580Z,996.14
2023-03-23T01:31:18.575Z,996.07
2023-03-23T01:32:18.575Z,996.11
2023-03-23T01:33:18.555Z,996.06
2023-03-23T01:34:18.540Z,995.95
2023-03-23T01:35:18.546Z,995.92
2023-03-23T01:36:18.515Z,995.97
2023-03-23T01:37:18.506Z,995.91
2023-03-23T01:38:18.499Z,995.88
2023-03-23T01:39:18.490Z,995.84
2023-03-23T01:40:18.472Z,995.85
2023-03-23T01:41:18.487Z,995.79
2023-03-23T01:42:18.449Z,995.81
2023-03-23T01:43:18.441Z,995.74
2023-03-23T01:44:18.433Z,995.85
2023-03-23T01:45:18.421Z,995.77
2023-03-23T01:46:18.409Z,995.77
2023-03-23T01:47:18.406Z,995.74
2023-03-23T01:48:18.387Z,995.74
2023-03-23T01:49:18.380Z,995.87
2023-03-23T01:50:18.358Z,995.84
2023-03-23T01:51:18.356Z,995.86
2023-03-23T01:52:18.340Z,995.77
2023-03-23T01:53:18.340Z,995.82
2023-03-23T01:54:18.324Z,995.87
2023-03-23T01:55:18.306Z,995.96
2023-03-23T01:56:18.295Z,995.98
2023-03-23T01:57:18.313Z,996.00
2023-03-23T01:58:19.283Z,996.08
2023-03-23T01:59:18.286Z,996.03
2023-03-23T02:00:18.254Z,996.09
2023-03-23T02:01:18.253Z,996.08
2023-03-23T02:02:18.226Z,996.04
2023-03-23T02:03:18.218Z,996.01
2023-03-23T02:04:18.213Z,995.99
2023-03-23T02:05:18.211Z,995.78
2023-03-23T02:06:18.185Z,995.85
2023-03-23T02:07:18.180Z,995.72
2023-03-23T02:08:18.162Z,995.78
2023-03-23T02:09:18.151Z,995.73
2023-03-23T02:10:19.139Z,995.71
2023-03-23T02:11:21.772Z,995.66
2023-03-23T02:12:18.112Z,995.77
2023-03-23T02:13:18.127Z,995.81
2023-03-23T02:14:18.095Z,995.85
2023-03-23T02:15:18.084Z,995.72
2023-03-23T02:16:18.074Z,995.53
2023-03-23T02:17:18.055Z,995.53
2023-03-23T02:18:18.044Z,995.53
2023-03-23T02:19:18.034Z,995.49
2023-03-23T02:20:18.023Z,995.52
2023-03-23T02:21:18.028Z,995.55
2023-03-23T02:22:17.998Z,995.59
2023-03-23T02:23:17.990Z,995.65
2023-03-23T02:24:17.971Z,995.58
2023-03-23T02:25:17.968Z,995.54
2023-03-23T02:26:17.960Z,995.55
2023-03-23T02:27:17.958Z,995.50
2023-03-23T02:28:17.933Z,995.49
2023-03-23T02:29:17.941Z,995.45
2023-03-23T02:30:17.906Z,995.46
2023-03-23T02:31:17.901Z,995.44
2023-03-23T02:32:17.884Z,995.43
2023-03-23T02:33:17.883Z,995.45
2023-03-23T02:34:17.870Z,995.48
2023-03-23T02:35:17.883Z,995.38
2023-03-23T02:36:17.846Z,995.44
2023-03-23T02:37:17.838Z,995.48
2023-03-23T02:38:17.815Z,995.35
2023-03-23T02:39:17.808Z,995.24
2023-03-23T02:40:17.796Z,995.00
2023-03-23T02:41:17.793Z,994.97
2023-03-23T02:42:17.796Z,994.81
2023-03-23T02:43:17.762Z,994.79
2023-03-23T02:44:17.762Z,994.89
2023-03-23T02:45:17.758Z,994.90
2023-03-23T02:46:17.721Z,994.95
2023-03-23T02:47:17.722Z,995.08
2023-03-23T02:48:17.714Z,995.01
2023-03-23T02:49:17.690Z,994.85
2023-03-23T02:50:17.681Z,994.87
2023-03-23T02:51:17.672Z,994.69
2023-03-23T02:52:17.656Z,994.65
2023-03-23T02:53:17.655Z,994.64
2023-03-23T02:54:17.638Z,994.66
2023-03-23T02:55:17.638Z,994.68
2023-03-23T02:56:17.608Z,994.61
2023-03-23T02:57:17.621Z,994.58
2023-03-23T02:58:17.617Z,994.68
2023-03-23T02:59:17.587Z,994.73
2023-03-23T03:00:17.572Z,994.72
2023-03-23T03:01:17.598Z,994.79
2023-03-23T03:02:17.542Z,994.88
2023-03-23T03:03:17.538Z,994.79
2023-03-23T03:04:17.525Z,994.85
2023-03-23T03:05:17.528Z,994.93
2023-03-23T03:06:17.500Z,994.90
2023-03-23T03:07:24.648Z,994.84
2023-03-23T03:08:17.486Z,994.80
2023-03-23T03:09:17.473Z,994.87
2023-03-23T03:10:17.543Z,994.90
2023-03-23T03:11:17.460Z,994.89
2023-03-23T03:12:17.456Z,995.00
2023-03-23T03:13:17.457Z,994.90
2023-03-23T03:14:17.408Z,994.88
2023-03-23T03:15:17.397Z,994.91
2023-03-23T03:16:17.398Z,994.91
2023-03-23T03:17:17.398Z,994.95
2023-03-23T03:18:17.389Z,994.89
2023-03-23T03:19:18.345Z,994.97
2023-03-23T03:20:17.345Z,994.90
2023-03-23T03:21:17.333Z,994.98
2023-03-23T03:22:17.316Z,994.94
2023-03-23T03:23:17.325Z,994.91
2023-03-23T03:24:17.293Z,994.94
2023-03-23T03:25:18.061Z,994.93
2023-03-23T03:26:17.276Z,994.96
2023-03-23T03:27:17.280Z,994.90
2023-03-23T03:28:17.257Z,995.11
2023-03-23T03:29:17.247Z,994.92
2023-03-23T03:30:17.234Z,994.95
2023-03-23T03:31:17.225Z,994.96
2023-03-23T03:32:17.225Z,994.99
2023-03-23T03:33:17.220Z,994.99
2023-03-23T03:34:17.192Z,994.98
2023-03-23T03:35:17.190Z,995.04
2023-03-23T03:36:17.210Z,995.03
2023-03-23T03:37:17.157Z,994.96
2023-03-23T03:38:17.148Z,995.07
2023-03-23T03:39:17.146Z,994.98
2023-03-23T03:40:17.123Z,994.95
2023-03-23T03:41:17.120Z,994.95
2023-03-23T03:42:17.111Z,995.00
2023-03-23T03:43:17.090Z,994.96
2023-03-23T03:44:17.081Z,995.08
2023-03-23T03:45:17.072Z,995.11
2023-03-23T03:46:17.051Z,995.14
2023-03-23T03:47:17.040Z,995.02
2023-03-23T03:48:17.032Z,995.13
2023-03-23T03:49:17.038Z,995.20
2023-03-23T03:50:17.024Z,995.13
2023-03-23T03:51:17.014Z,995.15
2023-03-23T03:52:16.992Z,995.02
2023-03-23T03:53:16.982Z,995.17
2023-03-23T03:54:17.955Z,995.14
2023-03-23T03:55:16.968Z,995.16
2023-03-23T03:56:16.943Z,995.14
2023-03-23T03:57:16.928Z,995.20
2023-03-23T03:58:16.917Z,995.16
2023-03-23T03:59:21.425Z,995.16
2023-03-23T04:00:16.917Z,995.23
2023-03-23T04:01:16.892Z,995.15
2023-03-23T04:02:16.882Z,995.09
2023-03-23T04:03:16.865Z,995.10
2023-03-23T04:04:16.875Z,995.04
2023-03-23T04:05:16.862Z,995.04
2023-03-23T04:06:16.833Z,995.09
2023-03-23T04:07:16.828Z,995.01
2023-03-23T04:08:16.801Z,995.03
2023-03-23T04:09:16.798Z,995.01
2023-03-23T04:10:16.791Z,995.03
2023-03-23T04:11:32.520Z,994.98
2023-03-23T04:12:17.781Z,994.97
2023-03-23T04:13:16.757Z,994.98
2023-03-23T04:14:16.732Z,994.96
2023-03-23T04:15:16.730Z,994.97
2023-03-23T04:16:16.727Z,994.97
2023-03-23T04:17:16.701Z,994.98
2023-03-23T04:18:16.694Z,995.01
2023-03-23T04:19:16.675Z,994.99
2023-03-23T04:20:16.666Z,994.99
2023-03-23T04:21:17.693Z,995.03
2023-03-23T04:22:16.658Z,995.04
2023-03-23T04:23:16.862Z,995.02
2023-03-23T04:24:23.409Z,995.03
2023-03-23T04:25:17.614Z,995.03
2023-03-23T04:26:16.623Z,995.04
2023-03-23T04:27:16.594Z,995.03
2023-03-23T04:28:16.584Z,995.02
2023-03-23T04:29:16.573Z,995.01
2023-03-23T04:30:16.552Z,995.04
2023-03-23T04:31:16.559Z,994.99
2023-03-23T04:32:16.543Z,994.92
2023-03-23T04:33:16.532Z,994.88
2023-03-23T04:34:17.519Z,994.93
2023-03-23T04:35:16.520Z,994.77
2023-03-23T04:36:16.521Z,994.80
2023-03-23T04:37:16.506Z,994.78
2023-03-23T04:38:16.469Z,994.80
2023-03-23T04:39:16.470Z,994.81
2023-03-23T04:40:16.456Z,994.71
2023-03-23T04:41:16.430Z,994.81
2023-03-23T04:42:16.430Z,994.77
2023-03-23T04:43:16.420Z,994.74
2023-03-23T04:44:16.399Z,994.67
2023-03-23T04:45:16.385Z,994.65
2023-03-23T04:46:16.374Z,994.64
2023-03-23T04:47:16.367Z,994.69
2023-03-23T04:48:16.373Z,994.76
2023-03-23T04:49:16.357Z,994.69
2023-03-23T04:50:16.348Z,994.72
2023-03-23T04:51:16.319Z,994.70
2023-03-23T04:52:16.316Z,994.67
2023-03-23T04:53:16.317Z,994.79
2023-03-23T04:54:16.302Z,994.82
2023-03-23T04:55:16.280Z,994.88
2023-03-23T04:56:16.278Z,994.95
2023-03-23T04:57:16.250Z,994.85
2023-03-23T04:58:16.237Z,994.88
2023-03-23T04:59:16.231Z,994.92
2023-03-23T05:00:16.227Z,994.89
2023-03-23T05:01:16.226Z,994.88
2023-03-23T05:02:16.188Z,994.89
2023-03-23T05:03:16.184Z,994.78
2023-03-23T05:04:16.167Z,994.88
2023-03-23T05:05:16.167Z,994.83
2023-03-23T05:06:16.140Z,994.88
2023-03-23T05:07:16.158Z,994.73
2023-03-23T05:08:16.122Z,994.79
2023-03-23T05:09:16.129Z,994.86
2023-03-23T05:10:16.117Z,994.79
2023-03-23T05:11:17.095Z,994.91
2023-03-23T05:12:16.077Z,994.84
2023-03-23T05:13:16.079Z,994.88
2023-03-23T05:14:16.056Z,994.84
2023-03-23T05:15:16.046Z,994.88
2023-03-23T05:16:16.032Z,994.92
2023-03-23T05:17:16.060Z,995.01
2023-03-23T05:18:16.017Z,994.87
2023-03-23T05:19:16.017Z,994.93
2023-03-23T05:20:15.988Z,995.01
2023-03-23T05:21:15.983Z,994.96
2023-03-23T05:22:15.986Z,994.94
2023-03-23T05:23:15.977Z,995.03
2023-03-23T05:24:15.941Z,995.05
2023-03-23T05:25:15.951Z,995.04
2023-03-23T05:26:15.928Z,994.99
2023-03-23T05:27:15.912Z,995.08
2023-03-23T05:28:15.904Z,995.10
2023-03-23T05:29:15.886Z,995.21
2023-03-23T05:30:15.905Z,995.13
2023-03-23T05:31:15.861Z,995.09
2023-03-23T05:32:15.852Z,995.13
2023-03-23T05:33:15.837Z,995.10
2023-03-23T05:34:15.830Z,995.09
2023-03-23T05:35:15.824Z,995.08
2023-03-23T05:36:15.846Z,995.08
2023-03-23T05:37:15.795Z,995.09
2023-03-23T05:38:15.787Z,995.01
2023-03-23T05:39:15.772Z,995.04
2023-03-23T05:40:15.768Z,995.09
2023-03-23T05:41:16.956Z,995.05
2023-03-23T05:42:15.734Z,995.11
2023-03-23T05:43:15.725Z,995.13
2023-03-23T05:44:15.718Z,995.11
2023-03-23T05:45:15.719Z,995.11
2023-03-23T05:46:15.690Z,995.10
2023-03-23T05:47:15.678Z,995.09
2023-03-23T05:48:15.674Z,995.16
2023-03-23T05:49:15.652Z,995.17
2023-03-23T05:50:15.644Z,995.13
2023-03-23T05:51:15.651Z,995.13
2023-03-23T05:52:15.625Z,995.11
2023-03-23T05:53:15.613Z,995.07
2023-03-23T05:54:15.599Z,994.98
2023-03-23T05:55:15.584Z,995.08
2023-03-23T05:56:15.594Z,995.02
2023-03-23T05:57:15.588Z,995.12
2023-03-23T05:58:15.551Z,995.08
2023-03-23T05:59:15.546Z,995.03
2023-03-23T06:00:15.541Z,994.98
2023-03-23T06:01:15.531Z,995.02
2023-03-23T06:02:15.515Z,994.99
2023-03-23T06:03:15.499Z,994.95
2023-03-23T06:04:15.532Z,995.05
2023-03-23T06:05:15.495Z,995.00
2023-03-23T06:06:15.467Z,995.01
2023-03-23T06:07:15.476Z,995.07
2023-03-23T06:08:15.445Z,995.15
2023-03-23T06:09:15.435Z,995.09
2023-03-23T06:10:15.430Z,995.03
2023-03-23T06:11:15.409Z,995.15
2023-03-23T06:12:15.408Z,995.13
2023-03-23T06:13:15.403Z,995.08
2023-03-23T06:14:15.402Z,995.06
2023-03-23T06:15:15.398Z,995.11
2023-03-23T06:16:15.360Z,995.14
2023-03-23T06:17:15.342Z,995.22
2023-03-23T06:18:15.331Z,995.14
2023-03-23T06:19:15.314Z,995.17
2023-03-23T06:20:15.348Z,995.24
2023-03-23T06:21:18.548Z,995.18
2023-03-23T06:22:15.285Z,995.19
2023-03-23T06:23:15.267Z,995.35
2023-03-23T06:24:15.266Z,995.31
2023-03-23T06:25:15.299Z,995.33
2023-03-23T06:26:15.244Z,995.40
2023-03-23T06:27:17.027Z,995.41
2023-03-23T06:28:15.225Z,995.38
2023-03-23T06:29:15.225Z,995.42
2023-03-23T06:30:15.202Z,995.34
2023-03-23T06:31:15.190Z,995.38
2023-03-23T06:32:15.173Z,995.36
2023-03-23T06:33:15.161Z,995.24
2023-03-23T06:34:15.147Z,995.38
2023-03-23T06:35:15.148Z,995.44
2023-03-23T06:36:15.173Z,995.38
2023-03-23T06:37:15.117Z,995.40
2023-03-23T06:38:15.105Z,995.36
2023-03-23T06:39:15.090Z,995.32
2023-03-23T06:40:15.133Z,995.32
2023-03-23T06:41:15.079Z,995.32
2023-03-23T06:42:15.059Z,995.33
2023-03-23T06:43:15.050Z,995.32
2023-03-23T06:44:15.059Z,995.33
2023-03-23T06:45:15.041Z,995.32
2023-03-23T06:46:15.027Z,995.31
2023-03-23T06:47:15.016Z,995.35
2023-03-23T06:48:15.018Z,995.41
2023-03-23T06:49:14.985Z,995.37
2023-03-23T06:50:14.970Z,995.31
2023-03-23T06:51:14.956Z,995.41
2023-03-23T06:52:14.945Z,995.50
2023-03-23T06:53:14.931Z,995.43
2023-03-23T06:54:14.940Z,995.39
2023-03-23T06:55:14.913Z,995.37
2023-03-23T06:56:14.899Z,995.41
2023-03-23T06:57:14.893Z,995.39
2023-03-23T06:58:14.880Z,995.38
2023-03-23T06:59:14.865Z,995.45
2023-03-23T07:00:14.862Z,995.37
2023-03-23T07:01:14.876Z,995.42
2023-03-23T07:02:14.832Z,995.43
2023-03-23T07:03:14.833Z,995.38
2023-03-23T07:04:14.817Z,995.43
2023-03-23T07:05:14.795Z,995.44
2023-03-23T07:06:14.787Z,995.42
2023-03-23T07:07:14.795Z,995.35
2023-03-23T07:08:14.763Z,995.42
2023-03-23T07:09:14.758Z,995.43
2023-03-23T07:10:14.747Z,995.52
2023-03-23T07:11:14.734Z,995.44
2023-03-23T07:12:14.741Z,995.47
2023-03-23T07:13:14.712Z,995.56
2023-03-23T07:14:14.697Z,995.55
2023-03-23T07:15:14.694Z,995.51
2023-03-23T07:16:14.679Z,995.41
2023-03-23T07:17:14.697Z,995.48
2023-03-23T07:18:14.667Z,995.46
2023-03-23T07:19:14.634Z,995.46
2023-03-23T07:20:14.631Z,995.59
2023-03-23T07:21:14.624Z,995.54
2023-03-23T07:22:14.605Z,995.65
2023-03-23T07:23:14.611Z,995.69
2023-03-23T07:24:14.582Z,995.70
2023-03-23T07:25:14.642Z,995.72
2023-03-23T07:26:14.559Z,995.68
2023-03-23T07:27:14.563Z,995.78
2023-03-23T07:28:14.545Z,995.77
2023-03-23T07:29:14.533Z,995.73
2023-03-23T07:30:14.512Z,995.78
2023-03-23T07:31:14.528Z,995.81
2023-03-23T07:32:14.499Z,995.78
2023-03-23T07:33:14.516Z,995.77
2023-03-23T07:34:14.470Z,995.78
2023-03-23T07:35:14.452Z,995.79
2023-03-23T07:36:14.476Z,995.74
2023-03-23T07:37:14.428Z,995.84
2023-03-23T07:38:14.418Z,995.88
2023-03-23T07:39:14.423Z,995.79
2023-03-23T07:40:14.402Z,995.84
2023-03-23T07:41:14.399Z,995.85
2023-03-23T07:42:14.387Z,995.79
2023-03-23T07:43:14.363Z,995.86
2023-03-23T07:44:14.355Z,995.89
2023-03-23T07:45:14.350Z,995.81
2023-03-23T07:46:14.336Z,995.87
2023-03-23T07:47:14.318Z,995.84
2023-03-23T07:48:21.164Z,995.86
2023-03-23T07:49:15.318Z,995.81
2023-03-23T07:50:14.308Z,995.87
2023-03-23T07:51:14.269Z,995.87
2023-03-23T07:52:14.261Z,995.93
2023-03-23T07:53:14.278Z,995.95
2023-03-23T07:54:14.238Z,995.92
2023-03-23T07:55:14.232Z,995.94
2023-03-23T07:56:14.241Z,995.86
2023-03-23T07:57:14.200Z,995.90
2023-03-23T07:58:14.193Z,996.03
2023-03-23T07:59:14.204Z,995.99
2023-03-23T08:00:14.169Z,995.98
2023-03-23T08:01:14.162Z,996.01
2023-03-23T08:02:14.147Z,996.02
2023-03-23T08:03:14.129Z,996.06
2023-03-23T08:04:14.136Z,996.11
2023-03-23T08:05:14.137Z,996.05
2023-03-23T08:06:14.123Z,996.06
2023-03-23T08:07:14.098Z,996.06
2023-03-23T08:08:15.103Z,996.05
2023-03-23T08:09:14.073Z,996.04
2023-03-23T08:10:14.058Z,996.10
2023-03-23T08:11:14.049Z,996.00
2023-03-23T08:12:14.032Z,995.92
2023-03-23T08:13:14.028Z,995.91
2023-03-23T08:14:16.705Z,995.95
2023-03-23T08:15:15.015Z,995.92
2023-03-23T08:16:13.984Z,995.90
2023-03-23T08:17:13.988Z,996.01
2023-03-23T08:18:13.964Z,995.96
2023-03-23T08:19:14.049Z,995.98
2023-03-23T08:20:13.956Z,995.98
2023-03-23T08:21:13.951Z,996.05
2023-03-23T08:22:13.922Z,996.13
2023-03-23T08:23:13.914Z,996.07
2023-03-23T08:24:13.893Z,996.14
2023-03-23T08:25:13.884Z,996.15
2023-03-23T08:26:13.870Z,996.18
2023-03-23T08:27:13.854Z,996.24
2023-03-23T08:28:13.853Z,996.19
2023-03-23T08:29:13.855Z,996.18
2023-03-23T08:30:13.823Z,996.17
2023-03-23T08:31:13.821Z,996.20
2023-03-23T08:32:13.806Z,996.15
2023-03-23T08:33:13.792Z,996.20
2023-03-23T08:34:13.873Z,996.23
2023-03-23T08:35:13.789Z,996.29
2023-03-23T08:36:13.783Z,996.14
2023-03-23T08:37:13.761Z,996.25
2023-03-23T08:38:13.733Z,996.22
2023-03-23T08:39:13.713Z,996.25
2023-03-23T08:40:14.178Z,996.34
2023-03-23T08:41:13.708Z,996.33
2023-03-23T08:42:13.699Z,996.33
2023-03-23T08:43:13.668Z,996.40
2023-03-23T08:44:13.669Z,996.43
2023-03-23T08:45:13.646Z,996.44
2023-03-23T08:46:13.639Z,996.37
2023-03-23T08:47:13.640Z,996.45
2023-03-23T08:48:13.629Z,996.56
2023-03-23T08:49:13.603Z,996.68
2023-03-23T08:50:13.598Z,996.69
2023-03-23T08:51:13.596Z,996.65
2023-03-23T08:52:13.585Z,996.59
2023-03-23T08:53:13.609Z,996.62
2023-03-23T08:54:13.565Z,996.64
2023-03-23T08:55:13.542Z,996.60
2023-03-23T08:56:13.543Z,996.55
2023-03-23T08:57:13.562Z,996.61
2023-03-23T08:58:13.535Z,996.57
2023-03-23T08:59:13.506Z,996.59
2023-03-23T09:00:13.491Z,996.69
2023-03-23T09:01:13.471Z,996.75
2023-03-23T09:02:13.490Z,996.60
2023-03-23T09:03:13.482Z,996.63
2023-03-23T09:04:13.436Z,996.57
2023-03-23T09:05:13.424Z,996.66
2023-03-23T09:06:13.444Z,996.66
2023-03-23T09:07:13.405Z,996.69
2023-03-23T09:08:20.530Z,996.78
2023-03-23T09:09:13.377Z,996.81
2023-03-23T09:10:13.406Z,996.84
2023-03-23T09:11:13.352Z,996.84
2023-03-23T09:12:13.345Z,996.92
2023-03-23T09:13:13.339Z,996.83
2023-03-23T09:14:13.318Z,996.78
2023-03-23T09:15:13.701Z,996.81
2023-03-23T09:16:13.313Z,996.69
2023-03-23T09:17:13.294Z,996.67
2023-03-23T09:18:13.277Z,996.70
2023-03-23T09:19:13.266Z,996.71
2023-03-23T09:20:13.256Z,996.81
2023-03-23T09:21:18.722Z,996.89
2023-03-23T09:22:13.260Z,996.86
2023-03-23T09:23:13.228Z,996.90
2023-03-23T09:24:14.083Z,996.92
2023-03-23T09:25:13.475Z,996.91
2023-03-23T09:26:13.188Z,996.93
2023-03-23T09:27:13.196Z,997.00
2023-03-23T09:28:13.168Z,997.02
2023-03-23T09:29:13.152Z,996.97
2023-03-23T09:30:13.150Z,996.99
2023-03-23T09:31:13.154Z,996.99
2023-03-23T09:32:13.126Z,997.06
2023-03-23T09:33:13.115Z,997.08
2023-03-23T09:34:13.098Z,997.03
2023-03-23T09:35:13.086Z,997.04
2023-03-23T09:36:13.126Z,997.08
2023-03-23T09:37:13.096Z,997.04
2023-03-23T09:38:13.054Z,997.16
2023-03-23T09:39:13.042Z,997.11
2023-03-23T09:40:13.099Z,997.12
2023-03-23T09:41:13.018Z,997.03
2023-03-23T09:42:13.008Z,997.00
2023-03-23T09:43:13.068Z,996.99
2023-03-23T09:44:13.001Z,996.97
2023-03-23T09:45:12.973Z,996.90
2023-03-23T09:46:12.962Z,996.97
2023-03-23T09:47:12.980Z,997.05
2023-03-23T09:48:12.942Z,997.18
2023-03-23T09:49:12.931Z,997.12
2023-03-23T09:50:12.953Z,997.16
2023-03-23T09:51:12.911Z,997.18
2023-03-23T09:52:12.894Z,997.12
2023-03-23T09:53:12.904Z,997.23
2023-03-23T09:54:12.891Z,997.25
2023-03-23T09:55:12.865Z,997.35
2023-03-23T09:56:12.878Z,997.41
2023-03-23T09:57:12.848Z,997.32
2023-03-23T09:58:12.857Z,997.29
2023-03-23T09:59:12.820Z,997.34
2023-03-23T10:00:12.826Z,997.35
2023-03-23T10:01:12.795Z,997.39
2023-03-23T10:02:12.779Z,997.40
2023-03-23T10:03:12.790Z,997.43
2023-03-23T10:04:12.766Z,997.46
2023-03-23T10:05:12.756Z,997.39
2023-03-23T10:06:12.735Z,997.32
2023-03-23T10:07:12.727Z,997.27
2023-03-23T10:08:12.722Z,997.14
2023-03-23T10:09:12.720Z,997.12
2023-03-23T10:10:12.691Z,997.15
2023-03-23T10:11:12.684Z,997.15
2023-03-23T10:12:12.731Z,997.23
2023-03-23T10:13:12.660Z,997.34
2023-03-23T10:14:12.654Z,997.36
2023-03-23T10:15:12.645Z,997.41
2023-03-23T10:16:12.624Z,997.48
2023-03-23T10:17:12.624Z,997.46
2023-03-23T10:18:12.612Z,997.56
2023-03-23T10:19:12.592Z,997.47
2023-03-23T10:20:12.602Z,997.58
2023-03-23T10:21:12.571Z,997.59
2023-03-23T10:22:12.556Z,997.58
2023-03-23T10:23:12.549Z,997.60
2023-03-23T10:24:12.530Z,997.59
2023-03-23T10:25:12.525Z,997.49
2023-03-23T10:26:12.548Z,997.53
2023-03-23T10:27:12.503Z,997.52
2023-03-23T10:28:12.513Z,997.42
2023-03-23T10:29:12.480Z,997.43
2023-03-23T10:30:12.464Z,997.47
2023-03-23T10:31:12.466Z,997.50
2023-03-23T10:32:12.465Z,997.53
2023-03-23T10:33:12.437Z,997.35
2023-03-23T10:34:12.419Z,997.36
2023-03-23T10:35:12.418Z,997.38
2023-03-23T10:36:12.432Z,997.39
2023-03-23T10:37:12.413Z,997.39
2023-03-23T10:38:12.387Z,997.42
2023-03-23T10:39:12.379Z,997.49
2023-03-23T10:40:12.360Z,997.53
2023-03-23T10:41:12.350Z,997.61
2023-03-23T10:42:12.340Z,997.57
2023-03-23T10:43:12.343Z,997.47
2023-03-23T10:44:12.337Z,997.42
2023-03-23T10:45:12.300Z,997.32
2023-03-23T10:46:17.565Z,997.35
2023-03-23T10:47:13.285Z,997.43
2023-03-23T10:48:12.274Z,997.49
2023-03-23T10:49:12.270Z,997.45
2023-03-23T10:50:12.244Z,997.48
2023-03-23T10:51:12.238Z,997.47
2023-03-23T10:52:12.245Z,997.43
2023-03-23T10:53:12.212Z,997.53
2023-03-23T10:54:12.198Z,997.49
2023-03-23T10:55:12.193Z,997.50
2023-03-23T10:56:12.173Z,997.55
2023-03-23T10:57:12.187Z,997.58
2023-03-23T10:58:12.154Z,997.53
2023-03-23T10:59:12.143Z,997.58
2023-03-23T11:00:12.163Z,997.60
2023-03-23T11:01:12.126Z,997.72
2023-03-23T11:02:15.710Z,997.61
2023-03-23T11:03:13.115Z,997.60
2023-03-23T11:04:12.080Z,997.64
2023-03-23T11:05:20.064Z,997.51
2023-03-23T11:06:13.071Z,997.60
2023-03-23T11:07:12.052Z,997.68
2023-03-23T11:08:12.042Z,997.64
2023-03-23T11:09:12.028Z,997.62
2023-03-23T11:10:12.018Z,997.67
2023-03-23T11:11:12.012Z,997.63
2023-03-23T11:12:11.992Z,997.63
2023-03-23T11:13:12.024Z,997.63
2023-03-23T11:14:11.970Z,997.61
2023-03-23T11:15:11.966Z,997.59
2023-03-23T11:16:11.972Z,997.61
2023-03-23T11:17:15.863Z,997.48
2023-03-23T11:18:11.947Z,997.51
2023-03-23T11:19:11.938Z,997.54
2023-03-23T11:20:11.901Z,997.55
2023-03-23T11:21:11.911Z,997.42
2023-03-23T11:22:11.877Z,997.45
2023-03-23T11:23:11.873Z,997.52
2023-03-23T11:24:11.889Z,997.58
2023-03-23T11:25:14.040Z,997.58
2023-03-23T11:26:11.832Z,997.63
2023-03-23T11:27:11.840Z,997.64
2023-03-23T11:28:11.811Z,997.69
2023-03-23T11:29:11.802Z,997.60
2023-03-23T11:30:11.809Z,997.64
2023-03-23T11:31:11.776Z,997.63
2023-03-23T11:32:11.784Z,997.58
2023-03-23T11:33:11.763Z,997.63
2023-03-23T11:34:11.750Z,997.66
2023-03-23T11:35:16.334Z,997.58
2023-03-23T11:36:11.763Z,997.61
2023-03-23T11:37:11.715Z,997.65
2023-03-23T11:38:11.693Z,997.64
2023-03-23T11:39:11.689Z,997.64
2023-03-23T11:40:11.688Z,997.64
2023-03-23T11:41:11.675Z,997.61
2023-03-23T11:42:11.656Z,997.61
2023-03-23T11:43:11.640Z,997.63
2023-03-23T11:44:11.647Z,997.59
2023-03-23T11:45:11.636Z,997.60
2023-03-23T11:46:11.609Z,997.66
2023-03-23T11:47:11.604Z,997.67
2023-03-23T11:48:11.659Z,997.62
2023-03-23T11:49:23.258Z,997.62
2023-03-23T11:50:12.580Z,997.67
2023-03-23T11:51:11.565Z,997.61
2023-03-23T11:52:11.545Z,997.58
2023-03-23T11:53:11.525Z,997.68
2023-03-23T11:54:11.520Z,997.52
2023-03-23T11:55:11.505Z,997.66
2023-03-23T11:56:11.521Z,997.60
2023-03-23T11:57:11.489Z,997.63
2023-03-23T11:58:11.474Z,997.62
2023-03-23T11:59:11.472Z,997.55
2023-03-23T12:00:11.448Z,997.59
2023-03-23T12:01:11.436Z,997.70
2023-03-23T12:02:16.997Z,997.66
2023-03-23T12:03:12.409Z,997.71
2023-03-23T12:04:11.438Z,997.73
2023-03-23T12:05:11.414Z,997.71
2023-03-23T12:06:11.385Z,997.72
2023-03-23T12:07:11.378Z,997.61
2023-03-23T12:08:11.374Z,997.65
2023-03-23T12:09:11.352Z,997.60
2023-03-23T12:10:11.346Z,997.67
2023-03-23T12:11:11.324Z,997.63
2023-03-23T12:12:11.325Z,997.64
2023-03-23T12:13:13.777Z,997.66
2023-03-23T12:14:11.291Z,997.61
2023-03-23T12:15:11.375Z,997.61
2023-03-23T12:16:11.265Z,997.61
2023-03-23T12:17:11.260Z,997.58
2023-03-23T12:18:11.248Z,997.51
2023-03-23T12:19:11.238Z,997.52
2023-03-23T12:20:11.245Z,997.59
2023-03-23T12:21:11.250Z,997.64
2023-03-23T12:22:11.194Z,997.63
2023-03-23T12:23:11.203Z,997.61
2023-03-23T12:24:11.188Z,997.75
2023-03-23T12:25:11.165Z,997.83
2023-03-23T12:26:11.153Z,997.70
2023-03-23T12:27:11.140Z,997.72
2023-03-23T12:28:11.129Z,997.74